createdAt,value
2022-10-07T00:03:34.258Z,102284.75
2022-10-07T00:08:38.448Z,102282.63
2022-10-07T00:13:44.178Z,102280.47
2022-10-07T00:18:48.172Z,102267.25
2022-10-07T00:23:52.251Z,102267.53
2022-10-07T00:28:56.660Z,102263.59
2022-10-07T00:34:00.365Z,102260.31
2022-10-07T00:39:05.478Z,102255.91
2022-10-07T00:44:38.363Z,102252.53
2022-10-07T00:49:46.647Z,102247.91
2022-10-07T00:54:53.000Z,102248.06
2022-10-07T00:59:58.240Z,102240.16
2022-10-07T01:05:04.347Z,102243.38
2022-10-07T01:10:09.202Z,102235.13
2022-10-07T01:15:25.101Z,102225.53
2022-10-07T01:20:35.794Z,102220.22
2022-10-07T01:25:59.498Z,102217.28
2022-10-07T01:31:07.437Z,102207.38
2022-10-07T01:36:15.401Z,102187.88
2022-10-07T01:41:21.273Z,102185.72
2022-10-07T01:46:27.406Z,102181.66
2022-10-07T01:51:37.715Z,102183.19
2022-10-07T01:56:55.066Z,102170.88
2022-10-07T02:02:06.307Z,102174.81
2022-10-07T02:07:23.184Z,102169.06
2022-10-07T02:12:35.527Z,102159.91
2022-10-07T02:17:44.757Z,102151.16
2022-10-07T02:22:50.158Z,102142.16
2022-10-07T02:27:55.932Z,102141.47
2022-10-07T02:33:04.292Z,102130.47
2022-10-07T02:38:10.313Z,102124.66
2022-10-07T02:43:18.413Z,102114.97
2022-10-07T02:48:24.544Z,102115.06
2022-10-07T02:53:32.152Z,102114.31
2022-10-07T02:58:37.113Z,102107.19
2022-10-07T03:03:42.335Z,102105.19
2022-10-07T03:08:47.880Z,102090.75
2022-10-07T03:13:51.265Z,102097.41
2022-10-07T03:18:56.622Z,102095.19
2022-10-07T03:24:04.861Z,102085.41
2022-10-07T03:29:13.882Z,102080.16
2022-10-07T03:34:18.708Z,102079.84
2022-10-07T03:39:24.119Z,102075.22
2022-10-07T03:44:27.027Z,102075.38
2022-10-07T03:49:33.101Z,102068.50
2022-10-07T03:54:36.034Z,102071.38
2022-10-07T03:59:40.825Z,102057.91
2022-10-07T04:04:45.547Z,102049.03
2022-10-07T04:09:48.577Z,102047.03
2022-10-07T04:14:51.921Z,102052.81
2022-10-07T04:19:56.231Z,102043.16
2022-10-07T04:25:21.894Z,102049.84
2022-10-07T04:30:28.070Z,102041.34
2022-10-07T04:35:32.455Z,102045.66
2022-10-07T04:40:40.021Z,102029.75
2022-10-07T04:45:43.299Z,102033.19
2022-10-07T04:50:48.375Z,102027.69
2022-10-07T04:55:52.479Z,102029.69
2022-10-07T05:00:59.222Z,102017.53
2022-10-07T05:06:06.016Z,102004.88
2022-10-07T05:11:12.621Z,102013.56
2022-10-07T05:16:24.984Z,102018.44
2022-10-07T05:21:29.487Z,102016.34
2022-10-07T05:26:33.018Z,102013.97
2022-10-07T05:31:38.237Z,102003.81
2022-10-07T05:36:44.332Z,102009.75
2022-10-07T05:41:49.364Z,101996.34
2022-10-07T05:46:55.631Z,101997.88
2022-10-07T05:52:00.290Z,101997.63
2022-10-07T05:57:03.198Z,102001.53
2022-10-07T06:02:06.356Z,101998.44
2022-10-07T06:07:11.164Z,101997.97
2022-10-07T06:12:32.160Z,101995.50
2022-10-07T06:17:42.658Z,101994.50
2022-10-07T06:22:48.300Z,101989.53
2022-10-07T06:27:54.656Z,101992.28
2022-10-07T06:32:59.155Z,101988.00
2022-10-07T06:38:03.410Z,101985.00
2022-10-07T06:43:06.798Z,101987.03
2022-10-07T06:48:20.442Z,101976.00
2022-10-07T06:53:24.695Z,101967.47
2022-10-07T06:58:28.695Z,101967.88
2022-10-07T07:03:32.091Z,101968.25
2022-10-07T07:08:41.108Z,101967.91
2022-10-07T07:13:45.989Z,101961.69
2022-10-07T07:18:52.610Z,101960.66
2022-10-07T07:23:58.870Z,101967.31
2022-10-07T07:29:05.458Z,101970.81
2022-10-07T07:34:15.476Z,101974.38
2022-10-07T07:39:21.761Z,101963.13
2022-10-07T07:44:35.064Z,101959.19
2022-10-07T07:49:39.376Z,101953.88
2022-10-07T07:54:46.363Z,101944.44
2022-10-07T07:59:49.537Z,101941.06
2022-10-07T08:04:54.854Z,101931.81
2022-10-07T08:10:00.557Z,101934.44
2022-10-07T08:15:03.640Z,101926.56
2022-10-07T08:20:08.775Z,101913.06
2022-10-07T08:25:13.336Z,101920.84
2022-10-07T08:30:16.320Z,101910.06
2022-10-07T08:35:19.306Z,101912.97
2022-10-07T08:40:23.705Z,101915.00
2022-10-07T08:45:31.850Z,101905.53
2022-10-07T08:50:42.089Z,101895.19
2022-10-07T08:55:50.723Z,101897.91
2022-10-07T09:01:03.323Z,101883.53
2022-10-07T09:06:14.155Z,101873.38
2022-10-07T09:11:25.570Z,101863.16
2022-10-07T09:16:33.202Z,101870.47
2022-10-07T09:21:43.639Z,101870.09
2022-10-07T09:26:48.363Z,101856.16
2022-10-07T09:31:53.410Z,101853.19
2022-10-07T09:37:14.669Z,101849.47
2022-10-07T09:42:28.396Z,101846.00
2022-10-07T09:47:36.150Z,101834.53
2022-10-07T09:52:38.890Z,101824.09
2022-10-07T09:57:43.573Z,101811.88
2022-10-07T10:02:49.959Z,101813.75
2022-10-07T10:07:59.286Z,101804.38
2022-10-07T10:13:05.299Z,101797.63
2022-10-07T10:18:29.040Z,101795.31
2022-10-07T10:23:36.719Z,101794.44
2022-10-07T10:28:48.945Z,101779.88
2022-10-07T10:33:59.722Z,101771.31
2022-10-07T10:39:05.338Z,101771.84
2022-10-07T10:44:28.723Z,101758.34
2022-10-07T10:49:39.197Z,101751.06
2022-10-07T10:54:56.196Z,101743.47
2022-10-07T11:00:08.913Z,101742.22
2022-10-07T11:05:17.400Z,101736.13
2022-10-07T11:10:23.021Z,101727.28
2022-10-07T11:15:33.631Z,101727.22
2022-10-07T11:20:42.372Z,101715.44
2022-10-07T11:25:53.760Z,101711.41
2022-10-07T11:31:03.312Z,101699.03
2022-10-07T11:36:14.825Z,101698.59
2022-10-07T11:41:25.617Z,101689.50
2022-10-07T11:46:34.942Z,101677.16
2022-10-07T11:51:41.502Z,101673.72
2022-10-07T11:56:48.154Z,101660.66
2022-10-07T12:01:53.620Z,101650.25
2022-10-07T12:07:34.787Z,101641.97
2022-10-07T12:12:53.699Z,101639.84
2022-10-07T12:18:38.793Z,101626.44
2022-10-07T12:23:48.735Z,101618.97
2022-10-07T12:29:05.372Z,101614.28
2022-10-07T12:34:11.752Z,101599.94
2022-10-07T12:39:37.219Z,101607.25
2022-10-07T12:44:45.519Z,101592.50
2022-10-07T12:49:50.554Z,101580.66
2022-10-07T12:54:58.442Z,101576.00
2022-10-07T13:00:08.001Z,101567.16
2022-10-07T13:05:49.796Z,101555.78
2022-10-07T13:11:26.623Z,101550.66
2022-10-07T13:16:34.515Z,101550.91
2022-10-07T13:21:40.611Z,101544.72
2022-10-07T13:26:46.622Z,101534.03
2022-10-07T13:32:03.827Z,101534.94
2022-10-07T13:37:29.615Z,101529.66
2022-10-07T13:42:33.810Z,101529.22
2022-10-07T13:47:36.624Z,101537.03
2022-10-07T13:52:44.545Z,101512.91
2022-10-07T13:57:48.879Z,101505.66
2022-10-07T14:02:52.676Z,101495.94
2022-10-07T14:07:58.151Z,101495.06
2022-10-07T14:13:07.221Z,101481.81
2022-10-07T14:18:12.269Z,101472.66
2022-10-07T14:23:23.479Z,101471.88
2022-10-07T14:28:33.338Z,101461.53
2022-10-07T14:34:00.840Z,101448.97
2022-10-07T14:39:25.268Z,101438.25
2022-10-07T14:44:29.993Z,101433.63
2022-10-07T14:49:32.851Z,101429.66
2022-10-07T14:54:35.896Z,101423.28
2022-10-07T14:59:40.183Z,101417.00
2022-10-07T15:04:47.006Z,101410.00
2022-10-07T15:09:49.861Z,101401.72
2022-10-07T15:14:54.933Z,101398.25
2022-10-07T15:19:58.293Z,101399.66
2022-10-07T15:25:03.319Z,101391.13
2022-10-07T15:30:09.027Z,101389.66
2022-10-07T15:35:12.328Z,101393.13
2022-10-07T15:40:15.567Z,101388.00
2022-10-07T15:45:19.855Z,101394.38
2022-10-07T15:50:22.702Z,101387.94
2022-10-07T15:55:25.457Z,101375.50
2022-10-07T16:00:29.549Z,101374.47
2022-10-07T16:05:32.480Z,101376.16
2022-10-07T16:10:38.306Z,101376.28
2022-10-07T16:15:42.618Z,101383.59
2022-10-07T16:20:45.650Z,101370.88
2022-10-07T16:25:49.304Z,101374.94
2022-10-07T16:30:53.547Z,101376.22
2022-10-07T16:35:56.412Z,101372.59
2022-10-07T16:40:59.156Z,101370.06
2022-10-07T16:46:04.219Z,101363.78
2022-10-07T16:51:10.072Z,101363.44
2022-10-07T16:56:13.823Z,101358.66
2022-10-07T17:01:18.479Z,101355.97
2022-10-07T17:06:24.519Z,101347.44
2022-10-07T17:11:30.487Z,101333.25
2022-10-07T17:16:37.681Z,101341.53
2022-10-07T17:21:42.217Z,101340.66
2022-10-07T17:26:45.896Z,101335.97
2022-10-07T17:31:51.160Z,101329.66
2022-10-07T17:36:54.093Z,101320.84
2022-10-07T17:41:57.341Z,101322.28
2022-10-07T17:47:03.771Z,101321.03
2022-10-07T17:52:06.849Z,101322.00
2022-10-07T17:57:10.195Z,101316.63
2022-10-07T18:02:14.432Z,101314.56
2022-10-07T18:07:17.617Z,101314.22
2022-10-07T18:12:39.426Z,101320.50
2022-10-07T18:17:44.507Z,101317.19
2022-10-07T18:22:47.830Z,101318.81
2022-10-07T18:27:51.362Z,101306.50
2022-10-07T18:32:55.629Z,101297.41
2022-10-07T18:37:58.501Z,101283.28
2022-10-07T18:43:01.383Z,101276.28
2022-10-07T18:48:05.738Z,101276.19
2022-10-07T18:53:08.749Z,101266.56
2022-10-07T18:58:11.776Z,101260.56
2022-10-07T19:03:16.050Z,101245.75
2022-10-07T19:08:19.496Z,101247.34
2022-10-07T19:13:39.643Z,101249.97
2022-10-07T19:18:44.756Z,101249.59
2022-10-07T19:23:48.962Z,101246.63
2022-10-07T19:28:53.153Z,101253.44
2022-10-07T19:34:02.345Z,101253.44
2022-10-07T19:39:07.368Z,101251.75
2022-10-07T19:44:12.824Z,101252.75
2022-10-07T19:49:17.259Z,101245.00
2022-10-07T19:54:47.943Z,101237.56
2022-10-07T19:59:59.914Z,101241.53
2022-10-07T20:05:05.981Z,101232.13
2022-10-07T20:10:11.268Z,101226.78
2022-10-07T20:15:14.524Z,101227.84
2022-10-07T20:20:18.961Z,101220.16
2022-10-07T20:25:21.918Z,101218.69
2022-10-07T20:30:24.843Z,101208.69
2022-10-07T20:35:33.650Z,101215.59
2022-10-07T20:41:05.749Z,101201.78
2022-10-07T20:46:09.439Z,101195.59
2022-10-07T20:51:13.808Z,101198.97
2022-10-07T20:56:16.700Z,101199.22
2022-10-07T21:01:19.733Z,101176.94
2022-10-07T21:06:24.151Z,101176.88
2022-10-07T21:11:28.057Z,101166.06
2022-10-07T21:16:35.075Z,101168.09
2022-10-07T21:21:39.644Z,101157.31
2022-10-07T21:26:42.534Z,101143.69
2022-10-07T21:31:45.616Z,101141.72
2022-10-07T21:36:53.849Z,101139.59
2022-10-07T21:41:58.196Z,101126.81
2022-10-07T21:47:01.006Z,101120.59
2022-10-07T21:52:05.177Z,101116.56
2022-10-07T21:57:08.721Z,101110.75
2022-10-07T22:02:11.541Z,101104.16
2022-10-07T22:07:32.971Z,101107.56
2022-10-07T22:12:35.781Z,101104.06
2022-10-07T22:17:38.563Z,101099.59
2022-10-07T22:22:42.713Z,101097.66
2022-10-07T22:27:45.444Z,101094.50
2022-10-07T22:32:48.726Z,101092.94
2022-10-07T22:37:53.077Z,101080.53
2022-10-07T22:42:56.045Z,101078.44
2022-10-07T22:47:58.807Z,101081.34
2022-10-07T22:53:03.194Z,101071.84
2022-10-07T22:58:06.093Z,101067.03
2022-10-07T23:03:10.845Z,101062.03
2022-10-07T23:08:15.057Z,101062.25
2022-10-07T23:13:17.812Z,101063.97
2022-10-07T23:18:20.531Z,101060.03
2022-10-07T23:23:25.298Z,101064.44
2022-10-07T23:28:28.200Z,101058.44
2022-10-07T23:33:31.897Z,101055.34
2022-10-07T23:38:37.236Z,101059.81
2022-10-07T23:43:40.045Z,101046.94
2022-10-07T23:48:43.563Z,101038.97
2022-10-07T23:53:48.332Z,101028.09
2022-10-07T23:58:51.197Z,101025.78
